Boo Sonier — WDG3281 — position and weather

sailwx.info

Track history (hours):
 
Tides and Currents Weather Stations Pressure Air Temp Water Temp Dewpoint Dewpoint Depression Visibility Wind Speed Wind Dir Waves Ship Positions

Boo Sonier

Owner: LeBeouf Bros. Towing, LLC, Houma, LA. More information available from US FCC via Universal Licensing System and Coast Guard Vessel Documentation Center.

Last reported at 2016-May-28 11:29 UTC. Time now 2016-May-28 11:55 UTC.
Position N 29°34' W 090°36'.

Length 21 m.

Type: Tug. MMSI: 367524420.

Date/timePositionNaut miles runAvg speedWind from/ knotsBaromVisibWave heightAir tempDewpointWater temp
2016-May-28 11:29N 29°34' W 090°36'0 0.0
2016-May-28 10:29N 29°34' W 090°36'0 0.0
2016-May-28 09:29N 29°34' W 090°36'0 0.0
2016-May-28 08:29N 29°34' W 090°36'0 0.0
2016-May-28 07:29N 29°34' W 090°36'0 0.0
2016-May-28 06:23N 29°34' W 090°36'0 0.0
2016-May-28 05:29N 29°34' W 090°36'0 0.0
2016-May-28 04:29N 29°34' W 090°36'0 0.0
2016-May-28 03:29N 29°34' W 090°36'0 0.0
2016-May-28 02:29N 29°34' W 090°36'0 0.0
2016-May-28 01:29N 29°34' W 090°36'0 0.0
2016-May-28 00:29N 29°34' W 090°36'0 0.0
2016-May-27 23:17N 29°34' W 090°36'0 0.0
2016-May-27 22:29N 29°34' W 090°36'0 0.0
2016-May-27 21:29N 29°34' W 090°36'0 0.0
2016-May-27 20:29N 29°34' W 090°36'0 0.0
2016-May-27 19:29N 29°34' W 090°36'0 0.0
2016-May-27 18:29N 29°34' W 090°36'0 0.0
2016-May-27 17:23N 29°34' W 090°36'0 0.0
2016-May-27 16:29N 29°34' W 090°36'0 0.0
2016-May-27 15:29N 29°34' W 090°36'0 0.0
2016-May-27 14:29N 29°34' W 090°36'0 0.0
2016-May-27 13:29N 29°34' W 090°36'0 0.0
2016-May-27 12:29N 29°34' W 090°36'0 0.0
2016-May-27 11:29N 29°34' W 090°36'0 0.0
2016-May-27 10:29N 29°34' W 090°36'0 0.0
2016-May-27 09:29N 29°34' W 090°36'0 0.0
2016-May-27 08:23N 29°34' W 090°36'0 0.0
2016-May-27 07:29N 29°34' W 090°36'0 0.0
2016-May-27 06:29N 29°34' W 090°36'0 0.0
2016-May-27 05:23N 29°34' W 090°36'0 0.0
2016-May-27 04:29N 29°34' W 090°36'0 0.0
2016-May-27 03:23N 29°34' W 090°36'0 0.0
2016-May-27 02:23N 29°34' W 090°36'0 0.0
2016-May-27 01:23N 29°34' W 090°36'0 0.0
2016-May-27 00:29N 29°34' W 090°36'0 0.0
2016-May-26 23:29N 29°34' W 090°36'0 0.0
2016-May-26 22:29N 29°34' W 090°36'0 0.0
2016-May-26 21:29N 29°34' W 090°36'0 0.0
2016-May-26 20:29N 29°34' W 090°36'0 0.0
2016-May-26 19:23N 29°34' W 090°36'0 0.0
2016-May-26 18:29N 29°34' W 090°36'0 0.0
2016-May-26 17:29N 29°34' W 090°36'0 0.0
2016-May-26 16:29N 29°34' W 090°36'0 0.0
2016-May-26 15:29N 29°34' W 090°36'0 0.0
2016-May-26 14:29N 29°34' W 090°36'0 0.0
2016-May-26 13:29N 29°34' W 090°36'0 0.0
2016-May-26 12:29N 29°34' W 090°36'0 0.0
2016-May-26 11:29N 29°34' W 090°36'0 0.0
2016-May-26 10:17N 29°34' W 090°36'0 0.0
2016-May-26 09:29N 29°34' W 090°36'0 0.5
2016-May-26 08:32N 29°35' W 090°36'4 4.1
2016-May-26 07:33N 29°34' W 090°31'28 4.7
2016-May-26 01:31N 29°49' W 090°04'6 6.1
2016-May-26 00:33N 29°54' W 089°60'2 1.9
2016-May-25 23:33N 29°55' W 089°58'0 0.2
2016-May-25 22:33N 29°55' W 089°58'0 0.0
2016-May-25 21:33N 29°55' W 089°58'0 0.0
2016-May-25 20:33N 29°55' W 089°58'0 0.0
2016-May-25 19:33N 29°55' W 089°58'0 0.0
2016-May-25 18:33N 29°55' W 089°58'0 0.0
2016-May-25 17:33N 29°55' W 089°58'0 0.0
2016-May-25 16:33N 29°55' W 089°58'4 3.9
2016-May-25 15:31N 29°58' W 090°02'1 0.7
2016-May-25 14:31N 29°59' W 090°01'2 1.9
2016-May-25 13:33N 29°60' W 089°60'1 0.5
2016-May-25 12:30N 29°60' W 089°59'0 0.0
2016-May-25 11:33N 29°60' W 089°59'0 0.0
2016-May-25 10:30N 29°60' W 089°59'0 0.0
2016-May-25 09:33N 29°60' W 089°59'0 0.0
2016-May-25 08:33N 29°60' W 089°59'0 0.0
2016-May-25 07:33N 29°60' W 089°59'0 0.0
2016-May-25 06:27N 29°60' W 089°59'0 0.0
2016-May-25 05:30N 29°60' W 089°59'0 0.0
2016-May-25 04:30N 29°60' W 089°59'0 0.0
2016-May-25 03:33N 29°60' W 089°59'0 0.0
2016-May-25 02:33N 29°60' W 089°59'0 0.0
2016-May-25 01:33N 29°60' W 089°59'1 0.7
2016-May-25 00:33N 30°00' W 089°59'  
2016-May-20 20:33N 30°00' W 089°57'3 3.1
2016-May-20 19:28N 29°60' W 090°00'2 2.3
2016-May-20 18:31N 29°58' W 090°02'0 0.3
2016-May-20 17:31N 29°58' W 090°02'2 1.1
2016-May-20 15:31N 29°56' W 089°60'0 0.2
2016-May-20 14:32N 29°56' W 089°60'0 0.0
2016-May-20 13:32N 29°56' W 089°60'0 0.0
2016-May-20 12:32N 29°56' W 089°60'0 0.0
2016-May-20 11:32N 29°56' W 089°60'0 0.0
2016-May-20 10:32N 29°56' W 089°60'0 0.0
2016-May-20 09:32N 29°56' W 089°60'0 0.0
2016-May-20 08:32N 29°56' W 089°60'0 0.0
2016-May-20 07:32N 29°56' W 089°60'0 0.0
2016-May-20 06:32N 29°56' W 089°60'0 0.0
2016-May-20 05:32N 29°56' W 089°60'0 0.0
2016-May-20 03:32N 29°56' W 089°60'0 0.0
2016-May-20 02:32N 29°56' W 089°60'0 0.0
2016-May-20 01:32N 29°56' W 089°60'0 0.0
2016-May-20 00:32N 29°56' W 089°60'0 0.0
2016-May-19 23:32N 29°56' W 089°60'0 0.0
2016-May-19 22:32N 29°56' W 089°60'0 0.0
2016-May-19 21:32N 29°56' W 089°60'0 0.0
2016-May-19 20:32N 29°56' W 089°60'0 0.0
2016-May-19 19:32N 29°56' W 089°60'0 0.0
2016-May-19 18:32N 29°56' W 089°60'0 0.0
2016-May-19 17:32N 29°56' W 089°60'0 0.0
2016-May-19 16:32N 29°56' W 089°60'0 0.0
2016-May-19 15:32N 29°56' W 089°60'0 0.4
2016-May-19 14:34N 29°56' W 090°00'0 0.4
2016-May-19 13:29N 29°56' W 089°60'1 1.2
2016-May-19 12:33N 29°56' W 089°59'1 0.7
2016-May-19 11:29N 29°55' W 089°58'0 0.3
2016-May-19 10:26N 29°55' W 089°59'0 0.0
2016-May-19 09:32N 29°55' W 089°59'0 0.0
2016-May-19 08:32N 29°55' W 089°59'0 0.0
2016-May-19 07:32N 29°55' W 089°59'0 0.0
2016-May-19 06:32N 29°55' W 089°59'0 0.0
2016-May-19 05:32N 29°55' W 089°59'0 0.0
2016-May-19 04:32N 29°55' W 089°59'0 0.0
2016-May-19 03:29N 29°55' W 089°59'0 0.0
2016-May-19 02:32N 29°55' W 089°59'0 0.0
2016-May-19 01:26N 29°55' W 089°59'0 0.0
2016-May-19 00:17N 29°55' W 089°59'0 0.0
2016-May-18 23:32N 29°55' W 089°59'0 0.0
2016-May-18 22:32N 29°55' W 089°59'0 0.2
2016-May-18 21:29N 29°54' W 089°59'0 0.0
2016-May-18 20:29N 29°54' W 089°59'0 0.0
2016-May-18 19:20N 29°54' W 089°59'0 0.0
2016-May-18 18:29N 29°54' W 089°59'0 0.0
2016-May-18 17:17N 29°54' W 089°59'0 0.0
2016-May-18 16:32N 29°54' W 089°59'0 0.0
2016-May-18 15:20N 29°54' W 089°59'0 0.0
2016-May-18 14:29N 29°54' W 089°59'0 0.0
2016-May-18 13:29N 29°54' W 089°59'0 0.0
2016-May-18 12:17N 29°54' W 089°59'0 0.0
2016-May-18 11:32N 29°54' W 089°59'  
Track history (hours):
 
Tides and Currents Weather Stations Pressure Air Temp Water Temp Dewpoint Dewpoint Depression Visibility Wind Speed Wind Dir Waves Ship Positions

Boo Sonier

Owner: LeBeouf Bros. Towing, LLC, Houma, LA. More information available from US FCC via Universal Licensing System and Coast Guard Vessel Documentation Center.

Last reported at 2016-May-28 11:29 UTC. Time now 2016-May-28 11:55 UTC.
Position N 29°34' W 090°36'.

Length 21 m.

Type: Tug. MMSI: 367524420.

Date/timePositionNaut miles runAvg speedWind from/ knotsBaromVisibWave heightAir tempDewpointWater temp
2016-May-28 11:29N 29°34' W 090°36'0 0.0
2016-May-28 10:29N 29°34' W 090°36'0 0.0
2016-May-28 09:29N 29°34' W 090°36'0 0.0
2016-May-28 08:29N 29°34' W 090°36'0 0.0
2016-May-28 07:29N 29°34' W 090°36'0 0.0
2016-May-28 06:23N 29°34' W 090°36'0 0.0
2016-May-28 05:29N 29°34' W 090°36'0 0.0
2016-May-28 04:29N 29°34' W 090°36'0 0.0
2016-May-28 03:29N 29°34' W 090°36'0 0.0
2016-May-28 02:29N 29°34' W 090°36'0 0.0
2016-May-28 01:29N 29°34' W 090°36'0 0.0
2016-May-28 00:29N 29°34' W 090°36'0 0.0
2016-May-27 23:17N 29°34' W 090°36'0 0.0
2016-May-27 22:29N 29°34' W 090°36'0 0.0
2016-May-27 21:29N 29°34' W 090°36'0 0.0
2016-May-27 20:29N 29°34' W 090°36'0 0.0
2016-May-27 19:29N 29°34' W 090°36'0 0.0
2016-May-27 18:29N 29°34' W 090°36'0 0.0
2016-May-27 17:23N 29°34' W 090°36'0 0.0
2016-May-27 16:29N 29°34' W 090°36'0 0.0
2016-May-27 15:29N 29°34' W 090°36'0 0.0
2016-May-27 14:29N 29°34' W 090°36'0 0.0
2016-May-27 13:29N 29°34' W 090°36'0 0.0
2016-May-27 12:29N 29°34' W 090°36'0 0.0
2016-May-27 11:29N 29°34' W 090°36'0 0.0
2016-May-27 10:29N 29°34' W 090°36'0 0.0
2016-May-27 09:29N 29°34' W 090°36'0 0.0
2016-May-27 08:23N 29°34' W 090°36'0 0.0
2016-May-27 07:29N 29°34' W 090°36'0 0.0
2016-May-27 06:29N 29°34' W 090°36'0 0.0
2016-May-27 05:23N 29°34' W 090°36'0 0.0
2016-May-27 04:29N 29°34' W 090°36'0 0.0
2016-May-27 03:23N 29°34' W 090°36'0 0.0
2016-May-27 02:23N 29°34' W 090°36'0 0.0
2016-May-27 01:23N 29°34' W 090°36'0 0.0
2016-May-27 00:29N 29°34' W 090°36'0 0.0
2016-May-26 23:29N 29°34' W 090°36'0 0.0
2016-May-26 22:29N 29°34' W 090°36'0 0.0
2016-May-26 21:29N 29°34' W 090°36'0 0.0
2016-May-26 20:29N 29°34' W 090°36'0 0.0
2016-May-26 19:23N 29°34' W 090°36'0 0.0
2016-May-26 18:29N 29°34' W 090°36'0 0.0
2016-May-26 17:29N 29°34' W 090°36'0 0.0
2016-May-26 16:29N 29°34' W 090°36'0 0.0
2016-May-26 15:29N 29°34' W 090°36'0 0.0
2016-May-26 14:29N 29°34' W 090°36'0 0.0
2016-May-26 13:29N 29°34' W 090°36'0 0.0
2016-May-26 12:29N 29°34' W 090°36'0 0.0
2016-May-26 11:29N 29°34' W 090°36'0 0.0
2016-May-26 10:17N 29°34' W 090°36'0 0.0
2016-May-26 09:29N 29°34' W 090°36'0 0.5
2016-May-26 08:32N 29°35' W 090°36'4 4.1
2016-May-26 07:33N 29°34' W 090°31'28 4.7
2016-May-26 01:31N 29°49' W 090°04'6 6.1
2016-May-26 00:33N 29°54' W 089°60'2 1.9
2016-May-25 23:33N 29°55' W 089°58'0 0.2
2016-May-25 22:33N 29°55' W 089°58'0 0.0
2016-May-25 21:33N 29°55' W 089°58'0 0.0
2016-May-25 20:33N 29°55' W 089°58'0 0.0
2016-May-25 19:33N 29°55' W 089°58'0 0.0
2016-May-25 18:33N 29°55' W 089°58'0 0.0
2016-May-25 17:33N 29°55' W 089°58'0 0.0
2016-May-25 16:33N 29°55' W 089°58'4 3.9
2016-May-25 15:31N 29°58' W 090°02'1 0.7
2016-May-25 14:31N 29°59' W 090°01'2 1.9
2016-May-25 13:33N 29°60' W 089°60'1 0.5
2016-May-25 12:30N 29°60' W 089°59'0 0.0
2016-May-25 11:33N 29°60' W 089°59'0 0.0
2016-May-25 10:30N 29°60' W 089°59'0 0.0
2016-May-25 09:33N 29°60' W 089°59'0 0.0
2016-May-25 08:33N 29°60' W 089°59'0 0.0
2016-May-25 07:33N 29°60' W 089°59'0 0.0
2016-May-25 06:27N 29°60' W 089°59'0 0.0
2016-May-25 05:30N 29°60' W 089°59'0 0.0
2016-May-25 04:30N 29°60' W 089°59'0 0.0
2016-May-25 03:33N 29°60' W 089°59'0 0.0
2016-May-25 02:33N 29°60' W 089°59'0 0.0
2016-May-25 01:33N 29°60' W 089°59'1 0.7
2016-May-25 00:33N 30°00' W 089°59'  
2016-May-20 20:33N 30°00' W 089°57'3 3.1
2016-May-20 19:28N 29°60' W 090°00'2 2.3
2016-May-20 18:31N 29°58' W 090°02'0 0.3
2016-May-20 17:31N 29°58' W 090°02'2 1.1
2016-May-20 15:31N 29°56' W 089°60'0 0.2
2016-May-20 14:32N 29°56' W 089°60'0 0.0
2016-May-20 13:32N 29°56' W 089°60'0 0.0
2016-May-20 12:32N 29°56' W 089°60'0 0.0
2016-May-20 11:32N 29°56' W 089°60'0 0.0
2016-May-20 10:32N 29°56' W 089°60'0 0.0
2016-May-20 09:32N 29°56' W 089°60'0 0.0
2016-May-20 08:32N 29°56' W 089°60'0 0.0
2016-May-20 07:32N 29°56' W 089°60'0 0.0
2016-May-20 06:32N 29°56' W 089°60'0 0.0
2016-May-20 05:32N 29°56' W 089°60'0 0.0
2016-May-20 03:32N 29°56' W 089°60'0 0.0
2016-May-20 02:32N 29°56' W 089°60'0 0.0
2016-May-20 01:32N 29°56' W 089°60'0 0.0
2016-May-20 00:32N 29°56' W 089°60'0 0.0
2016-May-19 23:32N 29°56' W 089°60'0 0.0
2016-May-19 22:32N 29°56' W 089°60'0 0.0
2016-May-19 21:32N 29°56' W 089°60'0 0.0
2016-May-19 20:32N 29°56' W 089°60'0 0.0
2016-May-19 19:32N 29°56' W 089°60'0 0.0
2016-May-19 18:32N 29°56' W 089°60'0 0.0
2016-May-19 17:32N 29°56' W 089°60'0 0.0
2016-May-19 16:32N 29°56' W 089°60'0 0.0
2016-May-19 15:32N 29°56' W 089°60'0 0.4
2016-May-19 14:34N 29°56' W 090°00'0 0.4
2016-May-19 13:29N 29°56' W 089°60'1 1.2
2016-May-19 12:33N 29°56' W 089°59'1 0.7
2016-May-19 11:29N 29°55' W 089°58'0 0.3
2016-May-19 10:26N 29°55' W 089°59'0 0.0
2016-May-19 09:32N 29°55' W 089°59'0 0.0
2016-May-19 08:32N 29°55' W 089°59'0 0.0
2016-May-19 07:32N 29°55' W 089°59'0 0.0
2016-May-19 06:32N 29°55' W 089°59'0 0.0
2016-May-19 05:32N 29°55' W 089°59'0 0.0
2016-May-19 04:32N 29°55' W 089°59'0 0.0
2016-May-19 03:29N 29°55' W 089°59'0 0.0
2016-May-19 02:32N 29°55' W 089°59'0 0.0
2016-May-19 01:26N 29°55' W 089°59'0 0.0
2016-May-19 00:17N 29°55' W 089°59'0 0.0
2016-May-18 23:32N 29°55' W 089°59'0 0.0
2016-May-18 22:32N 29°55' W 089°59'0 0.2
2016-May-18 21:29N 29°54' W 089°59'0 0.0
2016-May-18 20:29N 29°54' W 089°59'0 0.0
2016-May-18 19:20N 29°54' W 089°59'0 0.0
2016-May-18 18:29N 29°54' W 089°59'0 0.0
2016-May-18 17:17N 29°54' W 089°59'0 0.0
2016-May-18 16:32N 29°54' W 089°59'0 0.0
2016-May-18 15:20N 29°54' W 089°59'0 0.0
2016-May-18 14:29N 29°54' W 089°59'0 0.0
2016-May-18 13:29N 29°54' W 089°59'0 0.0
2016-May-18 12:17N 29°54' W 089°59'0 0.0
2016-May-18 11:32N 29°54' W 089°59'  

Dump ship's entire track history